sensor_id;sensor_type;location;lat;lon;timestamp;temperature;humidity
21121;DHT22;12519;43.318;21.898;2023-09-30T00:01:45;19.4;78.0
21121;DHT22;12519;43.318;21.898;2023-09-30T00:06:22;19.4;78.0
21121;DHT22;12519;43.318;21.898;2023-09-30T00:10:58;19.4;78.0
21121;DHT22;12519;43.318;21.898;2023-09-30T00:15:35;19.4;78.0
21121;DHT22;12519;43.318;21.898;2023-09-30T00:20:12;19.0;79.0
21121;DHT22;12519;43.318;21.898;2023-09-30T00:24:49;19.0;79.0
21121;DHT22;12519;43.318;21.898;2023-09-30T00:29:26;18.6;80.0
21121;DHT22;12519;43.318;21.898;2023-09-30T00:34:03;18.6;80.0
21121;DHT22;12519;43.318;21.898;2023-09-30T00:38:40;18.6;80.0
21121;DHT22;12519;43.318;21.898;2023-09-30T00:43:19;18.6;80.0
21121;DHT22;12519;43.318;21.898;2023-09-30T00:47:57;18.7;80.0
21121;DHT22;12519;43.318;21.898;2023-09-30T00:52:38;18.7;80.0
21121;DHT22;12519;43.318;21.898;2023-09-30T00:57:20;18.6;80.0
21121;DHT22;12519;43.318;21.898;2023-09-30T01:02:00;18.6;80.0
21121;DHT22;12519;43.318;21.898;2023-09-30T01:06:38;18.6;80.0
21121;DHT22;12519;43.318;21.898;2023-09-30T01:11:15;18.6;80.0
21121;DHT22;12519;43.318;21.898;2023-09-30T01:15:52;18.7;80.0
21121;DHT22;12519;43.318;21.898;2023-09-30T01:20:28;18.7;80.0
21121;DHT22;12519;43.318;21.898;2023-09-30T01:25:08;18.7;80.0
21121;DHT22;12519;43.318;21.898;2023-09-30T01:29:45;18.8;80.0
21121;DHT22;12519;43.318;21.898;2023-09-30T01:34:21;18.8;80.0
21121;DHT22;12519;43.318;21.898;2023-09-30T01:38:58;18.6;80.0
21121;DHT22;12519;43.318;21.898;2023-09-30T01:43:35;18.6;80.0
21121;DHT22;12519;43.318;21.898;2023-09-30T01:48:12;18.3;81.0
21121;DHT22;12519;43.318;21.898;2023-09-30T01:52:49;18.3;81.0
21121;DHT22;12519;43.318;21.898;2023-09-30T01:57:25;18.0;82.0
21121;DHT22;12519;43.318;21.898;2023-09-30T02:02:02;18.0;82.0
21121;DHT22;12519;43.318;21.898;2023-09-30T02:06:39;17.6;83.0
21121;DHT22;12519;43.318;21.898;2023-09-30T02:11:15;17.6;83.0
21121;DHT22;12519;43.318;21.898;2023-09-30T02:15:51;17.6;83.0
21121;DHT22;12519;43.318;21.898;2023-09-30T02:20:28;17.6;83.0
21121;DHT22;12519;43.318;21.898;2023-09-30T02:25:06;17.6;83.0
21121;DHT22;12519;43.318;21.898;2023-09-30T02:29:45;17.5;83.0
21121;DHT22;12519;43.318;21.898;2023-09-30T02:34:21;17.5;83.0
21121;DHT22;12519;43.318;21.898;2023-09-30T02:38:58;17.6;83.0
21121;DHT22;12519;43.318;21.898;2023-09-30T02:43:34;17.6;83.0
21121;DHT22;12519;43.318;21.898;2023-09-30T02:48:11;17.7;82.0
21121;DHT22;12519;43.318;21.898;2023-09-30T02:52:48;17.7;82.0
21121;DHT22;12519;43.318;21.898;2023-09-30T02:57:26;17.2;84.0
21121;DHT22;12519;43.318;21.898;2023-09-30T03:02:02;17.2;84.0
21121;DHT22;12519;43.318;21.898;2023-09-30T03:06:39;16.8;85.0
21121;DHT22;12519;43.318;21.898;2023-09-30T03:11:16;16.8;85.0
21121;DHT22;12519;43.318;21.898;2023-09-30T03:15:52;16.8;85.0
21121;DHT22;12519;43.318;21.898;2023-09-30T03:20:29;17.2;86.0
21121;DHT22;12519;43.318;21.898;2023-09-30T03:25:10;17.2;86.0
21121;DHT22;12519;43.318;21.898;2023-09-30T03:29:47;17.5;86.0
21121;DHT22;12519;43.318;21.898;2023-09-30T03:34:23;17.5;86.0
21121;DHT22;12519;43.318;21.898;2023-09-30T03:38:59;18.2;85.0
21121;DHT22;12519;43.318;21.898;2023-09-30T03:43:36;18.2;85.0
21121;DHT22;12519;43.318;21.898;2023-09-30T03:48:12;19.0;84.0
21121;DHT22;12519;43.318;21.898;2023-09-30T03:52:48;19.0;84.0
21121;DHT22;12519;43.318;21.898;2023-09-30T03:57:24;19.2;83.0
21121;DHT22;12519;43.318;21.898;2023-09-30T04:02:01;19.2;83.0
21121;DHT22;12519;43.318;21.898;2023-09-30T04:06:38;19.4;82.0
21121;DHT22;12519;43.318;21.898;2023-09-30T04:11:14;19.4;82.0
21121;DHT22;12519;43.318;21.898;2023-09-30T04:15:51;19.4;82.0
21121;DHT22;12519;43.318;21.898;2023-09-30T04:20:28;19.8;81.0
21121;DHT22;12519;43.318;21.898;2023-09-30T04:25:07;19.8;81.0
21121;DHT22;12519;43.318;21.898;2023-09-30T04:29:45;20.2;79.0
21121;DHT22;12519;43.318;21.898;2023-09-30T04:34:22;20.2;79.0
21121;DHT22;12519;43.318;21.898;2023-09-30T04:38:58;20.0;79.0
21121;DHT22;12519;43.318;21.898;2023-09-30T04:43:35;20.0;79.0
21121;DHT22;12519;43.318;21.898;2023-09-30T04:48:12;19.9;79.0
21121;DHT22;12519;43.318;21.898;2023-09-30T04:52:50;19.9;79.0
21121;DHT22;12519;43.318;21.898;2023-09-30T04:57:27;20.0;79.0
21121;DHT22;12519;43.318;21.898;2023-09-30T05:02:03;20.0;79.0
21121;DHT22;12519;43.318;21.898;2023-09-30T05:06:40;20.1;79.0
21121;DHT22;12519;43.318;21.898;2023-09-30T05:11:16;20.1;79.0
21121;DHT22;12519;43.318;21.898;2023-09-30T05:15:53;20.1;79.0
21121;DHT22;12519;43.318;21.898;2023-09-30T05:20:30;20.1;78.0
21121;DHT22;12519;43.318;21.898;2023-09-30T05:25:08;20.1;78.0
21121;DHT22;12519;43.318;21.898;2023-09-30T05:29:45;20.1;78.0
21121;DHT22;12519;43.318;21.898;2023-09-30T05:34:22;20.1;78.0
21121;DHT22;12519;43.318;21.898;2023-09-30T05:38:59;19.5;78.0
21121;DHT22;12519;43.318;21.898;2023-09-30T05:43:35;19.5;78.0
21121;DHT22;12519;43.318;21.898;2023-09-30T05:48:12;18.9;78.0
21121;DHT22;12519;43.318;21.898;2023-09-30T05:52:49;18.9;78.0
21121;DHT22;12519;43.318;21.898;2023-09-30T05:57:27;18.5;79.0
21121;DHT22;12519;43.318;21.898;2023-09-30T06:02:05;18.5;79.0
21121;DHT22;12519;43.318;21.898;2023-09-30T06:06:41;18.1;80.0
21121;DHT22;12519;43.318;21.898;2023-09-30T06:11:20;18.1;80.0
21121;DHT22;12519;43.318;21.898;2023-09-30T06:15:59;18.1;80.0
21121;DHT22;12519;43.318;21.898;2023-09-30T06:20:35;17.9;81.0
21121;DHT22;12519;43.318;21.898;2023-09-30T06:25:13;17.9;81.0
21121;DHT22;12519;43.318;21.898;2023-09-30T06:29:49;17.7;82.0
21121;DHT22;12519;43.318;21.898;2023-09-30T06:34:25;17.7;82.0
21121;DHT22;12519;43.318;21.898;2023-09-30T06:39:02;18.0;82.0
21121;DHT22;12519;43.318;21.898;2023-09-30T06:43:39;18.0;82.0
21121;DHT22;12519;43.318;21.898;2023-09-30T06:48:15;18.3;81.0
21121;DHT22;12519;43.318;21.898;2023-09-30T06:52:52;18.3;81.0
21121;DHT22;12519;43.318;21.898;2023-09-30T06:57:28;18.6;81.0
21121;DHT22;12519;43.318;21.898;2023-09-30T07:02:05;18.6;81.0
21121;DHT22;12519;43.318;21.898;2023-09-30T07:06:42;18.8;80.0
21121;DHT22;12519;43.318;21.898;2023-09-30T07:11:27;18.8;80.0
21121;DHT22;12519;43.318;21.898;2023-09-30T07:16:06;18.8;80.0
21121;DHT22;12519;43.318;21.898;2023-09-30T07:20:43;18.8;80.0
21121;DHT22;12519;43.318;21.898;2023-09-30T07:25:20;18.8;80.0
21121;DHT22;12519;43.318;21.898;2023-09-30T07:29:56;18.9;80.0
21121;DHT22;12519;43.318;21.898;2023-09-30T07:34:33;18.9;80.0
21121;DHT22;12519;43.318;21.898;2023-09-30T07:39:09;19.0;80.0
21121;DHT22;12519;43.318;21.898;2023-09-30T07:43:46;19.0;80.0
21121;DHT22;12519;43.318;21.898;2023-09-30T07:48:22;19.2;80.0
21121;DHT22;12519;43.318;21.898;2023-09-30T07:52:58;19.2;80.0
21121;DHT22;12519;43.318;21.898;2023-09-30T07:57:35;19.8;79.0
21121;DHT22;12519;43.318;21.898;2023-09-30T08:02:16;19.8;79.0
21121;DHT22;12519;43.318;21.898;2023-09-30T08:06:52;20.5;78.0
21121;DHT22;12519;43.318;21.898;2023-09-30T08:11:29;20.5;78.0
21121;DHT22;12519;43.318;21.898;2023-09-30T08:16:06;20.5;78.0
21121;DHT22;12519;43.318;21.898;2023-09-30T08:20:44;20.8;77.0
21121;DHT22;12519;43.318;21.898;2023-09-30T08:25:21;20.8;77.0
21121;DHT22;12519;43.318;21.898;2023-09-30T08:29:57;21.2;76.0
21121;DHT22;12519;43.318;21.898;2023-09-30T08:34:34;21.2;76.0
21121;DHT22;12519;43.318;21.898;2023-09-30T08:39:11;21.9;75.0
21121;DHT22;12519;43.318;21.898;2023-09-30T08:43:48;21.9;75.0
21121;DHT22;12519;43.318;21.898;2023-09-30T08:48:28;22.6;73.0
21121;DHT22;12519;43.318;21.898;2023-09-30T08:53:14;22.6;73.0
21121;DHT22;12519;43.318;21.898;2023-09-30T08:57:55;22.8;73.0
21121;DHT22;12519;43.318;21.898;2023-09-30T09:02:35;22.8;73.0
21121;DHT22;12519;43.318;21.898;2023-09-30T09:07:11;22.9;72.0
21121;DHT22;12519;43.318;21.898;2023-09-30T09:11:49;22.9;72.0
21121;DHT22;12519;43.318;21.898;2023-09-30T09:16:26;22.9;72.0
21121;DHT22;12519;43.318;21.898;2023-09-30T09:21:15;23.2;72.0
21121;DHT22;12519;43.318;21.898;2023-09-30T09:25:55;23.2;72.0
21121;DHT22;12519;43.318;21.898;2023-09-30T09:30:31;23.6;72.0
21121;DHT22;12519;43.318;21.898;2023-09-30T09:35:08;23.6;72.0
21121;DHT22;12519;43.318;21.898;2023-09-30T09:39:59;23.7;72.0
21121;DHT22;12519;43.318;21.898;2023-09-30T09:44:37;23.7;72.0
21121;DHT22;12519;43.318;21.898;2023-09-30T09:49:20;23.8;71.0
21121;DHT22;12519;43.318;21.898;2023-09-30T09:53:57;23.8;71.0
21121;DHT22;12519;43.318;21.898;2023-09-30T09:58:36;23.8;71.0
21121;DHT22;12519;43.318;21.898;2023-09-30T10:03:16;23.8;71.0
21121;DHT22;12519;43.318;21.898;2023-09-30T10:08:01;23.7;71.0
21121;DHT22;12519;43.318;21.898;2023-09-30T10:12:52;23.7;71.0
21121;DHT22;12519;43.318;21.898;2023-09-30T10:17:57;23.7;71.0
21121;DHT22;12519;43.318;21.898;2023-09-30T10:22:36;23.7;71.0
21121;DHT22;12519;43.318;21.898;2023-09-30T10:27:33;23.7;70.0
21121;DHT22;12519;43.318;21.898;2023-09-30T10:32:12;23.7;70.0
21121;DHT22;12519;43.318;21.898;2023-09-30T10:36:49;23.7;70.0
21121;DHT22;12519;43.318;21.898;2023-09-30T10:41:57;23.8;70.0
21121;DHT22;12519;43.318;21.898;2023-09-30T10:46:34;23.8;70.0
21121;DHT22;12519;43.318;21.898;2023-09-30T10:51:14;23.8;70.0
21121;DHT22;12519;43.318;21.898;2023-09-30T10:55:59;23.8;70.0
21121;DHT22;12519;43.318;21.898;2023-09-30T11:00:37;23.8;70.0
21121;DHT22;12519;43.318;21.898;2023-09-30T11:05:14;23.8;70.0
21121;DHT22;12519;43.318;21.898;2023-09-30T11:09:50;23.9;69.0
21121;DHT22;12519;43.318;21.898;2023-09-30T11:14:31;23.9;69.0
21121;DHT22;12519;43.318;21.898;2023-09-30T11:19:08;24.2;69.0
21121;DHT22;12519;43.318;21.898;2023-09-30T11:23:45;24.2;69.0
21121;DHT22;12519;43.318;21.898;2023-09-30T11:28:22;24.4;69.0
21121;DHT22;12519;43.318;21.898;2023-09-30T11:32:59;24.4;69.0
21121;DHT22;12519;43.318;21.898;2023-09-30T11:37:36;24.6;69.0
21121;DHT22;12519;43.318;21.898;2023-09-30T11:42:16;24.6;69.0
21121;DHT22;12519;43.318;21.898;2023-09-30T11:47:02;24.6;69.0
21121;DHT22;12519;43.318;21.898;2023-09-30T11:51:43;24.9;69.0
21121;DHT22;12519;43.318;21.898;2023-09-30T11:56:20;24.9;69.0
21121;DHT22;12519;43.318;21.898;2023-09-30T12:00:58;25.2;68.0
21121;DHT22;12519;43.318;21.898;2023-09-30T12:05:36;25.2;68.0
21121;DHT22;12519;43.318;21.898;2023-09-30T12:10:12;25.4;68.0
21121;DHT22;12519;43.318;21.898;2023-09-30T12:14:48;25.4;68.0
21121;DHT22;12519;43.318;21.898;2023-09-30T12:19:25;25.5;67.0
21121;DHT22;12519;43.318;21.898;2023-09-30T12:24:03;25.5;67.0
21121;DHT22;12519;43.318;21.898;2023-09-30T12:28:42;25.7;66.0
21121;DHT22;12519;43.318;21.898;2023-09-30T12:33:19;25.7;66.0
21121;DHT22;12519;43.318;21.898;2023-09-30T12:37:56;25.8;66.0
21121;DHT22;12519;43.318;21.898;2023-09-30T12:42:32;25.8;66.0
21121;DHT22;12519;43.318;21.898;2023-09-30T12:47:09;25.9;65.0
21121;DHT22;12519;43.318;21.898;2023-09-30T12:51:46;25.9;65.0
21121;DHT22;12519;43.318;21.898;2023-09-30T12:56:22;25.9;65.0
21121;DHT22;12519;43.318;21.898;2023-09-30T13:00:59;26.0;65.0
21121;DHT22;12519;43.318;21.898;2023-09-30T13:05:36;26.0;65.0
21121;DHT22;12519;43.318;21.898;2023-09-30T13:10:12;26.0;64.0
21121;DHT22;12519;43.318;21.898;2023-09-30T13:14:48;26.0;64.0
21121;DHT22;12519;43.318;21.898;2023-09-30T13:19:25;26.0;64.0
21121;DHT22;12519;43.318;21.898;2023-09-30T13:24:01;26.0;64.0
21121;DHT22;12519;43.318;21.898;2023-09-30T13:28:38;26.1;64.0
21121;DHT22;12519;43.318;21.898;2023-09-30T13:33:15;26.1;64.0
21121;DHT22;12519;43.318;21.898;2023-09-30T13:37:51;26.2;64.0
21121;DHT22;12519;43.318;21.898;2023-09-30T13:42:28;26.2;64.0
21121;DHT22;12519;43.318;21.898;2023-09-30T13:47:05;26.2;64.0
21121;DHT22;12519;43.318;21.898;2023-09-30T13:51:41;26.2;63.0
21121;DHT22;12519;43.318;21.898;2023-09-30T13:56:17;26.2;63.0
21121;DHT22;12519;43.318;21.898;2023-09-30T14:00:55;26.2;63.0
21121;DHT22;12519;43.318;21.898;2023-09-30T14:05:32;26.2;63.0
21121;DHT22;12519;43.318;21.898;2023-09-30T14:10:09;26.3;62.0
21121;DHT22;12519;43.318;21.898;2023-09-30T14:14:46;26.3;62.0
21121;DHT22;12519;43.318;21.898;2023-09-30T14:19:22;26.3;62.0
21121;DHT22;12519;43.318;21.898;2023-09-30T14:23:58;26.3;62.0
21121;DHT22;12519;43.318;21.898;2023-09-30T14:28:34;26.3;62.0
21121;DHT22;12519;43.318;21.898;2023-09-30T14:33:11;26.3;62.0
21121;DHT22;12519;43.318;21.898;2023-09-30T14:37:47;26.3;62.0
21121;DHT22;12519;43.318;21.898;2023-09-30T14:42:23;26.3;62.0
21121;DHT22;12519;43.318;21.898;2023-09-30T14:47:00;26.3;62.0
21121;DHT22;12519;43.318;21.898;2023-09-30T14:51:36;26.3;62.0
21121;DHT22;12519;43.318;21.898;2023-09-30T14:56:17;26.3;62.0
21121;DHT22;12519;43.318;21.898;2023-09-30T15:00:54;26.2;61.0
21121;DHT22;12519;43.318;21.898;2023-09-30T15:05:31;26.2;61.0
21121;DHT22;12519;43.318;21.898;2023-09-30T15:10:09;26.1;60.0
21121;DHT22;12519;43.318;21.898;2023-09-30T15:14:45;26.1;60.0
21121;DHT22;12519;43.318;21.898;2023-09-30T15:19:22;26.0;60.0
21121;DHT22;12519;43.318;21.898;2023-09-30T15:23:59;26.0;60.0
21121;DHT22;12519;43.318;21.898;2023-09-30T15:28:36;25.9;60.0
21121;DHT22;12519;43.318;21.898;2023-09-30T15:33:13;25.9;60.0
21121;DHT22;12519;43.318;21.898;2023-09-30T15:37:49;25.8;60.0
21121;DHT22;12519;43.318;21.898;2023-09-30T15:42:26;25.8;60.0
21121;DHT22;12519;43.318;21.898;2023-09-30T15:47:10;25.8;60.0
21121;DHT22;12519;43.318;21.898;2023-09-30T15:51:46;25.6;61.0
21121;DHT22;12519;43.318;21.898;2023-09-30T15:56:22;25.6;61.0
21121;DHT22;12519;43.318;21.898;2023-09-30T16:00:59;25.4;60.0
21121;DHT22;12519;43.318;21.898;2023-09-30T16:05:38;25.4;60.0
21121;DHT22;12519;43.318;21.898;2023-09-30T16:10:16;25.1;60.0
21121;DHT22;12519;43.318;21.898;2023-09-30T16:14:53;25.1;60.0
21121;DHT22;12519;43.318;21.898;2023-09-30T16:19:29;24.9;60.0
21121;DHT22;12519;43.318;21.898;2023-09-30T16:24:06;24.9;60.0
21121;DHT22;12519;43.318;21.898;2023-09-30T16:28:43;24.7;60.0
21121;DHT22;12519;43.318;21.898;2023-09-30T16:33:20;24.7;60.0
21121;DHT22;12519;43.318;21.898;2023-09-30T16:37:57;24.5;61.0
21121;DHT22;12519;43.318;21.898;2023-09-30T16:42:34;24.5;61.0
21121;DHT22;12519;43.318;21.898;2023-09-30T16:47:11;24.5;61.0
21121;DHT22;12519;43.318;21.898;2023-09-30T16:51:47;24.4;61.0
21121;DHT22;12519;43.318;21.898;2023-09-30T16:56:24;24.4;61.0
21121;DHT22;12519;43.318;21.898;2023-09-30T17:01:00;24.2;61.0
21121;DHT22;12519;43.318;21.898;2023-09-30T17:05:37;24.2;61.0
21121;DHT22;12519;43.318;21.898;2023-09-30T17:10:14;24.1;62.0
21121;DHT22;12519;43.318;21.898;2023-09-30T17:14:51;24.1;62.0
21121;DHT22;12519;43.318;21.898;2023-09-30T17:19:28;24.0;62.0
21121;DHT22;12519;43.318;21.898;2023-09-30T17:24:05;24.0;62.0
21121;DHT22;12519;43.318;21.898;2023-09-30T17:28:42;23.9;63.0
21121;DHT22;12519;43.318;21.898;2023-09-30T17:33:18;23.9;63.0
21121;DHT22;12519;43.318;21.898;2023-09-30T17:37:55;23.8;63.0
21121;DHT22;12519;43.318;21.898;2023-09-30T17:42:32;23.8;63.0
21121;DHT22;12519;43.318;21.898;2023-09-30T17:47:09;23.8;63.0
21121;DHT22;12519;43.318;21.898;2023-09-30T17:51:46;23.7;64.0
21121;DHT22;12519;43.318;21.898;2023-09-30T17:56:22;23.7;64.0
21121;DHT22;12519;43.318;21.898;2023-09-30T18:00:59;23.6;65.0
21121;DHT22;12519;43.318;21.898;2023-09-30T18:05:36;23.6;65.0
21121;DHT22;12519;43.318;21.898;2023-09-30T18:10:12;23.6;66.0
21121;DHT22;12519;43.318;21.898;2023-09-30T18:14:49;23.6;66.0
21121;DHT22;12519;43.318;21.898;2023-09-30T18:19:25;23.8;67.0
21121;DHT22;12519;43.318;21.898;2023-09-30T18:24:02;23.8;67.0
21121;DHT22;12519;43.318;21.898;2023-09-30T18:28:40;24.1;69.0
21121;DHT22;12519;43.318;21.898;2023-09-30T18:33:16;24.1;69.0
21121;DHT22;12519;43.318;21.898;2023-09-30T18:37:53;24.1;69.0
21121;DHT22;12519;43.318;21.898;2023-09-30T18:42:29;24.1;69.0
21121;DHT22;12519;43.318;21.898;2023-09-30T18:47:06;24.1;69.0
21121;DHT22;12519;43.318;21.898;2023-09-30T18:51:43;24.1;69.0
21121;DHT22;12519;43.318;21.898;2023-09-30T18:56:20;24.1;69.0
21121;DHT22;12519;43.318;21.898;2023-09-30T19:00:58;24.0;69.0
21121;DHT22;12519;43.318;21.898;2023-09-30T19:05:37;24.0;69.0
21121;DHT22;12519;43.318;21.898;2023-09-30T19:10:16;24.0;69.0
21121;DHT22;12519;43.318;21.898;2023-09-30T19:14:53;24.0;69.0
21121;DHT22;12519;43.318;21.898;2023-09-30T19:19:31;23.7;68.0
21121;DHT22;12519;43.318;21.898;2023-09-30T19:24:09;23.7;68.0
21121;DHT22;12519;43.318;21.898;2023-09-30T19:28:47;23.4;68.0
21121;DHT22;12519;43.318;21.898;2023-09-30T19:33:23;23.4;68.0
21121;DHT22;12519;43.318;21.898;2023-09-30T19:38:00;23.4;68.0
21121;DHT22;12519;43.318;21.898;2023-09-30T19:42:37;23.2;68.0
21121;DHT22;12519;43.318;21.898;2023-09-30T19:47:13;23.2;68.0
21121;DHT22;12519;43.318;21.898;2023-09-30T19:51:49;22.9;67.0
21121;DHT22;12519;43.318;21.898;2023-09-30T19:56:25;22.9;67.0
21121;DHT22;12519;43.318;21.898;2023-09-30T20:01:06;22.9;68.0
21121;DHT22;12519;43.318;21.898;2023-09-30T20:05:45;22.9;68.0
21121;DHT22;12519;43.318;21.898;2023-09-30T20:10:21;22.9;68.0
21121;DHT22;12519;43.318;21.898;2023-09-30T20:14:58;22.9;68.0
21121;DHT22;12519;43.318;21.898;2023-09-30T20:19:35;22.6;69.0
21121;DHT22;12519;43.318;21.898;2023-09-30T20:24:11;22.6;69.0
21121;DHT22;12519;43.318;21.898;2023-09-30T20:28:47;22.3;70.0
21121;DHT22;12519;43.318;21.898;2023-09-30T20:33:25;22.3;70.0
21121;DHT22;12519;43.318;21.898;2023-09-30T20:38:01;22.3;70.0
21121;DHT22;12519;43.318;21.898;2023-09-30T20:42:40;22.2;71.0
21121;DHT22;12519;43.318;21.898;2023-09-30T20:47:16;22.2;71.0
21121;DHT22;12519;43.318;21.898;2023-09-30T20:51:53;22.2;71.0
21121;DHT22;12519;43.318;21.898;2023-09-30T20:56:29;22.2;71.0
21121;DHT22;12519;43.318;21.898;2023-09-30T21:01:06;21.9;72.0
21121;DHT22;12519;43.318;21.898;2023-09-30T21:05:47;21.9;72.0
21121;DHT22;12519;43.318;21.898;2023-09-30T21:10:23;21.6;72.0
21121;DHT22;12519;43.318;21.898;2023-09-30T21:15:00;21.6;72.0
21121;DHT22;12519;43.318;21.898;2023-09-30T21:19:41;21.8;74.0
21121;DHT22;12519;43.318;21.898;2023-09-30T21:24:17;21.8;74.0
21121;DHT22;12519;43.318;21.898;2023-09-30T21:28:54;21.9;75.0
21121;DHT22;12519;43.318;21.898;2023-09-30T21:33:31;21.9;75.0
21121;DHT22;12519;43.318;21.898;2023-09-30T21:38:07;21.9;75.0
21121;DHT22;12519;43.318;21.898;2023-09-30T21:42:44;21.6;75.0
21121;DHT22;12519;43.318;21.898;2023-09-30T21:47:26;21.6;75.0
21121;DHT22;12519;43.318;21.898;2023-09-30T21:52:03;21.4;74.0
21121;DHT22;12519;43.318;21.898;2023-09-30T21:56:39;21.4;74.0
21121;DHT22;12519;43.318;21.898;2023-09-30T22:01:17;21.2;74.0
21121;DHT22;12519;43.318;21.898;2023-09-30T22:05:53;21.2;74.0
21121;DHT22;12519;43.318;21.898;2023-09-30T22:10:30;21.1;75.0
21121;DHT22;12519;43.318;21.898;2023-09-30T22:15:08;21.1;75.0
21121;DHT22;12519;43.318;21.898;2023-09-30T22:19:46;20.9;75.0
21121;DHT22;12519;43.318;21.898;2023-09-30T22:24:22;20.9;75.0
21121;DHT22;12519;43.318;21.898;2023-09-30T22:28:58;20.7;76.0
21121;DHT22;12519;43.318;21.898;2023-09-30T22:33:35;20.7;76.0
21121;DHT22;12519;43.318;21.898;2023-09-30T22:38:12;20.7;76.0
21121;DHT22;12519;43.318;21.898;2023-09-30T22:42:48;20.5;76.0
21121;DHT22;12519;43.318;21.898;2023-09-30T22:47:25;20.5;76.0
21121;DHT22;12519;43.318;21.898;2023-09-30T22:52:02;20.3;77.0
21121;DHT22;12519;43.318;21.898;2023-09-30T22:56:39;20.3;77.0
21121;DHT22;12519;43.318;21.898;2023-09-30T23:01:21;20.2;77.0
21121;DHT22;12519;43.318;21.898;2023-09-30T23:06:00;20.2;77.0
21121;DHT22;12519;43.318;21.898;2023-09-30T23:10:37;20.1;78.0
21121;DHT22;12519;43.318;21.898;2023-09-30T23:15:16;20.1;78.0
21121;DHT22;12519;43.318;21.898;2023-09-30T23:19:56;20.0;78.0
21121;DHT22;12519;43.318;21.898;2023-09-30T23:24:33;20.0;78.0
21121;DHT22;12519;43.318;21.898;2023-09-30T23:29:10;19.8;79.0
21121;DHT22;12519;43.318;21.898;2023-09-30T23:33:46;19.8;79.0
21121;DHT22;12519;43.318;21.898;2023-09-30T23:38:22;19.8;79.0
21121;DHT22;12519;43.318;21.898;2023-09-30T23:42:59;19.6;79.0
21121;DHT22;12519;43.318;21.898;2023-09-30T23:47:36;19.6;79.0
21121;DHT22;12519;43.318;21.898;2023-09-30T23:52:13;19.3;80.0
21121;DHT22;12519;43.318;21.898;2023-09-30T23:56:50;19.3;80.0
